sensor_id;sensor_type;location;lat;lon;timestamp;P1;durP1;ratioP1;P2;durP2;ratioP2
29958;SDS011;16815;51.100;6.516;2022-10-16T00:00:33;4.07;;;1.60;;
29958;SDS011;16815;51.100;6.516;2022-10-16T00:02:59;4.73;;;1.80;;
29958;SDS011;16815;51.100;6.516;2022-10-16T00:05:25;6.00;;;1.70;;
29958;SDS011;16815;51.100;6.516;2022-10-16T00:07:51;3.23;;;1.60;;
29958;SDS011;16815;51.100;6.516;2022-10-16T00:10:17;6.93;;;1.80;;
29958;SDS011;16815;51.100;6.516;2022-10-16T00:12:43;2.43;;;1.60;;
29958;SDS011;16815;51.100;6.516;2022-10-16T00:15:09;1.97;;;1.53;;
29958;SDS011;16815;51.100;6.516;2022-10-16T00:17:35;5.90;;;2.00;;
29958;SDS011;16815;51.100;6.516;2022-10-16T00:20:01;5.57;;;1.87;;
29958;SDS011;16815;51.100;6.516;2022-10-16T00:22:27;3.60;;;1.47;;
29958;SDS011;16815;51.100;6.516;2022-10-16T00:24:53;3.23;;;1.77;;
29958;SDS011;16815;51.100;6.516;2022-10-16T00:27:19;2.67;;;1.60;;
29958;SDS011;16815;51.100;6.516;2022-10-16T00:29:49;4.33;;;1.90;;
29958;SDS011;16815;51.100;6.516;2022-10-16T00:32:15;9.07;;;1.80;;
29958;SDS011;16815;51.100;6.516;2022-10-16T00:34:41;2.40;;;1.40;;
29958;SDS011;16815;51.100;6.516;2022-10-16T00:37:06;5.53;;;1.63;;
29958;SDS011;16815;51.100;6.516;2022-10-16T00:39:32;4.40;;;1.70;;
29958;SDS011;16815;51.100;6.516;2022-10-16T00:41:58;3.97;;;1.60;;
29958;SDS011;16815;51.100;6.516;2022-10-16T00:47:10;3.27;;;1.73;;
29958;SDS011;16815;51.100;6.516;2022-10-16T00:49:37;3.60;;;1.23;;
29958;SDS011;16815;51.100;6.516;2022-10-16T00:52:04;6.23;;;1.67;;
29958;SDS011;16815;51.100;6.516;2022-10-16T00:54:31;3.70;;;1.30;;
29958;SDS011;16815;51.100;6.516;2022-10-16T00:56:58;2.87;;;1.33;;
29958;SDS011;16815;51.100;6.516;2022-10-16T00:59:26;3.20;;;1.47;;
29958;SDS011;16815;51.100;6.516;2022-10-16T01:01:52;5.10;;;1.50;;
29958;SDS011;16815;51.100;6.516;2022-10-16T01:04:19;2.43;;;1.27;;
29958;SDS011;16815;51.100;6.516;2022-10-16T01:06:57;3.77;;;1.70;;
29958;SDS011;16815;51.100;6.516;2022-10-16T01:09:33;4.50;;;1.90;;
29958;SDS011;16815;51.100;6.516;2022-10-16T01:12:06;4.80;;;1.63;;
29958;SDS011;16815;51.100;6.516;2022-10-16T01:17:15;3.40;;;1.60;;
29958;SDS011;16815;51.100;6.516;2022-10-16T01:22:31;7.47;;;2.00;;
29958;SDS011;16815;51.100;6.516;2022-10-16T01:24:58;7.30;;;1.80;;
29958;SDS011;16815;51.100;6.516;2022-10-16T01:27:28;8.10;;;1.70;;
29958;SDS011;16815;51.100;6.516;2022-10-16T01:29:59;4.97;;;1.70;;
29958;SDS011;16815;51.100;6.516;2022-10-16T01:32:31;6.53;;;1.77;;
29958;SDS011;16815;51.100;6.516;2022-10-16T01:35:02;3.60;;;1.47;;
29958;SDS011;16815;51.100;6.516;2022-10-16T01:37:33;5.53;;;1.70;;
29958;SDS011;16815;51.100;6.516;2022-10-16T01:40:01;3.87;;;1.60;;
29958;SDS011;16815;51.100;6.516;2022-10-16T01:42:29;5.40;;;1.60;;
29958;SDS011;16815;51.100;6.516;2022-10-16T01:44:56;7.77;;;1.80;;
29958;SDS011;16815;51.100;6.516;2022-10-16T01:47:23;6.27;;;1.50;;
29958;SDS011;16815;51.100;6.516;2022-10-16T01:49:50;5.37;;;1.90;;
29958;SDS011;16815;51.100;6.516;2022-10-16T01:52:18;2.90;;;1.57;;
29958;SDS011;16815;51.100;6.516;2022-10-16T01:54:46;3.63;;;1.63;;
29958;SDS011;16815;51.100;6.516;2022-10-16T01:57:13;9.13;;;1.80;;
29958;SDS011;16815;51.100;6.516;2022-10-16T01:59:46;6.37;;;1.50;;
29958;SDS011;16815;51.100;6.516;2022-10-16T02:02:13;4.03;;;1.67;;
29958;SDS011;16815;51.100;6.516;2022-10-16T02:04:42;7.03;;;1.57;;
29958;SDS011;16815;51.100;6.516;2022-10-16T02:07:09;5.50;;;1.57;;
29958;SDS011;16815;51.100;6.516;2022-10-16T02:09:35;7.37;;;1.40;;
29958;SDS011;16815;51.100;6.516;2022-10-16T02:12:04;3.10;;;1.20;;
29958;SDS011;16815;51.100;6.516;2022-10-16T02:14:32;4.20;;;1.93;;
29958;SDS011;16815;51.100;6.516;2022-10-16T02:16:58;4.90;;;2.13;;
29958;SDS011;16815;51.100;6.516;2022-10-16T02:19:24;2.47;;;1.50;;
29958;SDS011;16815;51.100;6.516;2022-10-16T02:24:19;7.43;;;2.37;;
29958;SDS011;16815;51.100;6.516;2022-10-16T02:29:23;4.10;;;1.50;;
29958;SDS011;16815;51.100;6.516;2022-10-16T02:31:52;5.73;;;1.80;;
29958;SDS011;16815;51.100;6.516;2022-10-16T02:34:19;3.13;;;1.40;;
29958;SDS011;16815;51.100;6.516;2022-10-16T02:36:46;3.17;;;1.47;;
29958;SDS011;16815;51.100;6.516;2022-10-16T02:39:13;2.50;;;1.53;;
29958;SDS011;16815;51.100;6.516;2022-10-16T02:41:39;3.00;;;1.50;;
29958;SDS011;16815;51.100;6.516;2022-10-16T02:44:05;3.90;;;1.70;;
29958;SDS011;16815;51.100;6.516;2022-10-16T02:46:31;4.00;;;1.50;;
29958;SDS011;16815;51.100;6.516;2022-10-16T02:48:57;4.00;;;1.40;;
29958;SDS011;16815;51.100;6.516;2022-10-16T02:51:23;3.07;;;1.53;;
29958;SDS011;16815;51.100;6.516;2022-10-16T02:53:49;2.53;;;1.27;;
29958;SDS011;16815;51.100;6.516;2022-10-16T02:56:15;3.53;;;1.27;;
29958;SDS011;16815;51.100;6.516;2022-10-16T02:58:41;6.33;;;1.40;;
29958;SDS011;16815;51.100;6.516;2022-10-16T03:01:07;5.37;;;1.30;;
29958;SDS011;16815;51.100;6.516;2022-10-16T03:03:33;6.60;;;1.30;;
29958;SDS011;16815;51.100;6.516;2022-10-16T03:05:59;3.27;;;1.43;;
29958;SDS011;16815;51.100;6.516;2022-10-16T03:08:25;3.13;;;1.53;;
29958;SDS011;16815;51.100;6.516;2022-10-16T03:10:51;3.80;;;1.50;;
29958;SDS011;16815;51.100;6.516;2022-10-16T03:13:17;3.33;;;1.70;;
29958;SDS011;16815;51.100;6.516;2022-10-16T03:15:45;5.27;;;1.70;;
29958;SDS011;16815;51.100;6.516;2022-10-16T03:18:11;5.20;;;1.80;;
29958;SDS011;16815;51.100;6.516;2022-10-16T03:20:37;2.57;;;1.77;;
29958;SDS011;16815;51.100;6.516;2022-10-16T03:23:03;3.53;;;1.73;;
29958;SDS011;16815;51.100;6.516;2022-10-16T03:25:29;3.80;;;1.47;;
29958;SDS011;16815;51.100;6.516;2022-10-16T03:27:55;3.70;;;1.23;;
29958;SDS011;16815;51.100;6.516;2022-10-16T03:30:21;2.03;;;1.10;;
29958;SDS011;16815;51.100;6.516;2022-10-16T03:32:47;3.73;;;1.40;;
29958;SDS011;16815;51.100;6.516;2022-10-16T03:35:13;2.43;;;1.20;;
29958;SDS011;16815;51.100;6.516;2022-10-16T03:37:39;2.83;;;1.43;;
29958;SDS011;16815;51.100;6.516;2022-10-16T03:40:05;4.73;;;1.40;;
29958;SDS011;16815;51.100;6.516;2022-10-16T03:42:31;1.77;;;1.40;;
29958;SDS011;16815;51.100;6.516;2022-10-16T03:44:57;3.13;;;1.40;;
29958;SDS011;16815;51.100;6.516;2022-10-16T03:47:23;1.90;;;1.30;;
29958;SDS011;16815;51.100;6.516;2022-10-16T03:49:49;3.13;;;1.40;;
29958;SDS011;16815;51.100;6.516;2022-10-16T03:52:15;2.90;;;1.23;;
29958;SDS011;16815;51.100;6.516;2022-10-16T03:54:41;3.57;;;1.40;;
29958;SDS011;16815;51.100;6.516;2022-10-16T03:57:07;3.30;;;1.37;;
29958;SDS011;16815;51.100;6.516;2022-10-16T03:59:33;3.83;;;1.30;;
29958;SDS011;16815;51.100;6.516;2022-10-16T04:01:59;2.73;;;1.23;;
29958;SDS011;16815;51.100;6.516;2022-10-16T04:04:25;3.33;;;1.53;;
29958;SDS011;16815;51.100;6.516;2022-10-16T04:06:51;2.97;;;1.50;;
29958;SDS011;16815;51.100;6.516;2022-10-16T04:09:17;2.07;;;1.40;;
29958;SDS011;16815;51.100;6.516;2022-10-16T04:11:43;2.77;;;1.43;;
29958;SDS011;16815;51.100;6.516;2022-10-16T04:14:09;3.97;;;1.33;;
29958;SDS011;16815;51.100;6.516;2022-10-16T04:16:35;1.80;;;1.10;;
29958;SDS011;16815;51.100;6.516;2022-10-16T04:19:01;3.80;;;1.30;;
29958;SDS011;16815;51.100;6.516;2022-10-16T04:21:26;3.57;;;1.53;;
29958;SDS011;16815;51.100;6.516;2022-10-16T04:23:52;6.00;;;1.70;;
29958;SDS011;16815;51.100;6.516;2022-10-16T04:26:18;4.37;;;1.37;;
29958;SDS011;16815;51.100;6.516;2022-10-16T04:28:44;2.20;;;1.40;;
29958;SDS011;16815;51.100;6.516;2022-10-16T04:31:10;3.23;;;1.10;;
29958;SDS011;16815;51.100;6.516;2022-10-16T04:33:36;4.30;;;1.70;;
29958;SDS011;16815;51.100;6.516;2022-10-16T04:36:02;2.63;;;1.40;;
29958;SDS011;16815;51.100;6.516;2022-10-16T04:38:28;3.63;;;1.43;;
29958;SDS011;16815;51.100;6.516;2022-10-16T04:40:54;2.13;;;1.20;;
29958;SDS011;16815;51.100;6.516;2022-10-16T04:43:20;5.67;;;1.60;;
29958;SDS011;16815;51.100;6.516;2022-10-16T04:45:47;2.83;;;1.50;;
29958;SDS011;16815;51.100;6.516;2022-10-16T04:48:12;6.10;;;1.70;;
29958;SDS011;16815;51.100;6.516;2022-10-16T04:50:39;1.53;;;1.43;;
29958;SDS011;16815;51.100;6.516;2022-10-16T04:53:05;2.97;;;1.63;;
29958;SDS011;16815;51.100;6.516;2022-10-16T04:55:31;2.40;;;1.20;;
29958;SDS011;16815;51.100;6.516;2022-10-16T04:57:57;5.00;;;1.50;;
29958;SDS011;16815;51.100;6.516;2022-10-16T05:00:23;3.57;;;1.60;;
29958;SDS011;16815;51.100;6.516;2022-10-16T05:02:49;2.93;;;1.47;;
29958;SDS011;16815;51.100;6.516;2022-10-16T05:05:15;2.73;;;1.50;;
29958;SDS011;16815;51.100;6.516;2022-10-16T05:07:43;3.57;;;1.60;;
29958;SDS011;16815;51.100;6.516;2022-10-16T05:10:09;4.80;;;1.80;;
29958;SDS011;16815;51.100;6.516;2022-10-16T05:12:35;4.57;;;2.10;;
29958;SDS011;16815;51.100;6.516;2022-10-16T05:15:02;2.33;;;1.80;;
29958;SDS011;16815;51.100;6.516;2022-10-16T05:17:28;2.40;;;1.60;;
29958;SDS011;16815;51.100;6.516;2022-10-16T05:19:54;2.73;;;1.53;;
29958;SDS011;16815;51.100;6.516;2022-10-16T05:22:20;2.53;;;1.70;;
29958;SDS011;16815;51.100;6.516;2022-10-16T05:24:46;3.53;;;1.60;;
29958;SDS011;16815;51.100;6.516;2022-10-16T05:27:12;4.47;;;1.80;;
29958;SDS011;16815;51.100;6.516;2022-10-16T05:29:44;5.70;;;1.90;;
29958;SDS011;16815;51.100;6.516;2022-10-16T05:32:10;3.63;;;2.07;;
29958;SDS011;16815;51.100;6.516;2022-10-16T05:34:36;2.83;;;1.80;;
29958;SDS011;16815;51.100;6.516;2022-10-16T05:37:02;6.70;;;2.27;;
29958;SDS011;16815;51.100;6.516;2022-10-16T05:39:28;3.10;;;1.83;;
29958;SDS011;16815;51.100;6.516;2022-10-16T05:41:54;3.53;;;2.30;;
29958;SDS011;16815;51.100;6.516;2022-10-16T05:44:20;3.77;;;1.67;;
29958;SDS011;16815;51.100;6.516;2022-10-16T05:46:46;5.13;;;1.97;;
29958;SDS011;16815;51.100;6.516;2022-10-16T05:49:12;1.77;;;1.60;;
29958;SDS011;16815;51.100;6.516;2022-10-16T05:51:38;2.63;;;1.90;;
29958;SDS011;16815;51.100;6.516;2022-10-16T05:54:04;2.90;;;2.10;;
29958;SDS011;16815;51.100;6.516;2022-10-16T05:56:30;2.63;;;1.67;;
29958;SDS011;16815;51.100;6.516;2022-10-16T05:58:56;2.70;;;1.93;;
29958;SDS011;16815;51.100;6.516;2022-10-16T06:01:22;3.17;;;2.07;;
29958;SDS011;16815;51.100;6.516;2022-10-16T06:03:49;3.00;;;1.60;;
29958;SDS011;16815;51.100;6.516;2022-10-16T06:06:19;3.10;;;1.60;;
29958;SDS011;16815;51.100;6.516;2022-10-16T06:08:45;5.77;;;1.70;;
29958;SDS011;16815;51.100;6.516;2022-10-16T06:11:13;3.87;;;1.70;;
29958;SDS011;16815;51.100;6.516;2022-10-16T06:13:39;3.93;;;1.60;;
29958;SDS011;16815;51.100;6.516;2022-10-16T06:16:10;3.53;;;1.80;;
29958;SDS011;16815;51.100;6.516;2022-10-16T06:18:37;3.80;;;1.77;;
29958;SDS011;16815;51.100;6.516;2022-10-16T06:21:07;2.50;;;1.77;;
29958;SDS011;16815;51.100;6.516;2022-10-16T06:23:33;3.53;;;1.70;;
29958;SDS011;16815;51.100;6.516;2022-10-16T06:26:09;3.70;;;1.80;;
29958;SDS011;16815;51.100;6.516;2022-10-16T06:28:36;3.30;;;1.80;;
29958;SDS011;16815;51.100;6.516;2022-10-16T06:31:02;2.97;;;1.70;;
29958;SDS011;16815;51.100;6.516;2022-10-16T06:33:29;3.93;;;1.53;;
29958;SDS011;16815;51.100;6.516;2022-10-16T06:38:27;3.63;;;2.07;;
29958;SDS011;16815;51.100;6.516;2022-10-16T06:40:53;2.87;;;1.80;;
29958;SDS011;16815;51.100;6.516;2022-10-16T06:43:19;6.63;;;1.80;;
29958;SDS011;16815;51.100;6.516;2022-10-16T06:45:55;3.97;;;1.80;;
29958;SDS011;16815;51.100;6.516;2022-10-16T06:48:23;2.23;;;1.70;;
29958;SDS011;16815;51.100;6.516;2022-10-16T06:51:05;3.03;;;1.90;;
29958;SDS011;16815;51.100;6.516;2022-10-16T06:53:33;4.00;;;1.97;;
29958;SDS011;16815;51.100;6.516;2022-10-16T06:56:15;5.60;;;2.00;;
29958;SDS011;16815;51.100;6.516;2022-10-16T06:58:42;4.43;;;2.17;;
29958;SDS011;16815;51.100;6.516;2022-10-16T07:01:08;2.43;;;1.97;;
29958;SDS011;16815;51.100;6.516;2022-10-16T07:03:38;4.20;;;1.90;;
29958;SDS011;16815;51.100;6.516;2022-10-16T07:06:05;1.90;;;1.70;;
29958;SDS011;16815;51.100;6.516;2022-10-16T07:08:32;4.60;;;1.90;;
29958;SDS011;16815;51.100;6.516;2022-10-16T07:11:01;3.57;;;1.60;;
29958;SDS011;16815;51.100;6.516;2022-10-16T07:13:27;3.60;;;1.83;;
29958;SDS011;16815;51.100;6.516;2022-10-16T07:15:53;2.57;;;1.70;;
29958;SDS011;16815;51.100;6.516;2022-10-16T07:18:19;2.17;;;1.87;;
29958;SDS011;16815;51.100;6.516;2022-10-16T07:20:45;2.10;;;1.83;;
29958;SDS011;16815;51.100;6.516;2022-10-16T07:23:11;2.67;;;2.20;;
29958;SDS011;16815;51.100;6.516;2022-10-16T07:25:37;3.10;;;1.80;;
29958;SDS011;16815;51.100;6.516;2022-10-16T07:28:03;5.57;;;2.40;;
29958;SDS011;16815;51.100;6.516;2022-10-16T07:30:29;5.17;;;2.33;;
29958;SDS011;16815;51.100;6.516;2022-10-16T07:32:55;1.77;;;1.67;;
29958;SDS011;16815;51.100;6.516;2022-10-16T07:35:21;3.07;;;1.83;;
29958;SDS011;16815;51.100;6.516;2022-10-16T07:37:47;1.80;;;1.70;;
29958;SDS011;16815;51.100;6.516;2022-10-16T07:40:13;3.13;;;1.90;;
29958;SDS011;16815;51.100;6.516;2022-10-16T07:42:39;3.07;;;1.53;;
29958;SDS011;16815;51.100;6.516;2022-10-16T07:45:05;2.57;;;1.73;;
29958;SDS011;16815;51.100;6.516;2022-10-16T07:47:31;5.57;;;1.70;;
29958;SDS011;16815;51.100;6.516;2022-10-16T07:49:57;3.93;;;1.63;;
29958;SDS011;16815;51.100;6.516;2022-10-16T07:52:23;2.10;;;1.80;;
29958;SDS011;16815;51.100;6.516;2022-10-16T07:54:49;4.13;;;1.90;;
29958;SDS011;16815;51.100;6.516;2022-10-16T07:57:15;2.63;;;1.67;;
29958;SDS011;16815;51.100;6.516;2022-10-16T07:59:44;2.83;;;1.57;;
29958;SDS011;16815;51.100;6.516;2022-10-16T08:02:10;2.83;;;1.50;;
29958;SDS011;16815;51.100;6.516;2022-10-16T08:04:36;7.80;;;2.03;;
29958;SDS011;16815;51.100;6.516;2022-10-16T08:07:02;4.13;;;1.70;;
29958;SDS011;16815;51.100;6.516;2022-10-16T08:09:28;2.67;;;2.07;;
29958;SDS011;16815;51.100;6.516;2022-10-16T08:11:54;5.40;;;1.70;;
29958;SDS011;16815;51.100;6.516;2022-10-16T08:14:20;3.83;;;1.50;;
29958;SDS011;16815;51.100;6.516;2022-10-16T08:16:46;3.47;;;1.40;;
29958;SDS011;16815;51.100;6.516;2022-10-16T08:19:12;4.17;;;1.40;;
29958;SDS011;16815;51.100;6.516;2022-10-16T08:21:40;1.97;;;1.50;;
29958;SDS011;16815;51.100;6.516;2022-10-16T08:24:06;4.03;;;1.37;;
29958;SDS011;16815;51.100;6.516;2022-10-16T08:26:32;3.60;;;1.30;;
29958;SDS011;16815;51.100;6.516;2022-10-16T08:28:58;1.80;;;1.30;;
29958;SDS011;16815;51.100;6.516;2022-10-16T08:31:24;6.70;;;1.63;;
29958;SDS011;16815;51.100;6.516;2022-10-16T08:33:52;2.33;;;1.30;;
29958;SDS011;16815;51.100;6.516;2022-10-16T08:36:17;4.90;;;1.23;;
29958;SDS011;16815;51.100;6.516;2022-10-16T08:38:43;2.70;;;1.30;;
29958;SDS011;16815;51.100;6.516;2022-10-16T08:49:10;3.60;;;1.30;;
29958;SDS011;16815;51.100;6.516;2022-10-16T08:51:37;1.50;;;1.10;;
29958;SDS011;16815;51.100;6.516;2022-10-16T08:56:29;1.63;;;1.03;;
29958;SDS011;16815;51.100;6.516;2022-10-16T08:58:57;2.37;;;1.27;;
29958;SDS011;16815;51.100;6.516;2022-10-16T09:01:23;3.73;;;1.20;;
29958;SDS011;16815;51.100;6.516;2022-10-16T09:03:59;1.57;;;1.13;;
29958;SDS011;16815;51.100;6.516;2022-10-16T09:11:38;1.30;;;1.10;;
29958;SDS011;16815;51.100;6.516;2022-10-16T09:16:41;3.27;;;1.07;;
29958;SDS011;16815;51.100;6.516;2022-10-16T09:21:45;2.33;;;1.40;;
29958;SDS011;16815;51.100;6.516;2022-10-16T09:24:16;2.60;;;1.20;;
29958;SDS011;16815;51.100;6.516;2022-10-16T09:26:43;1.83;;;1.17;;
29958;SDS011;16815;51.100;6.516;2022-10-16T09:29:11;2.00;;;1.10;;
29958;SDS011;16815;51.100;6.516;2022-10-16T09:31:37;2.03;;;1.07;;
29958;SDS011;16815;51.100;6.516;2022-10-16T09:34:03;4.03;;;1.10;;
29958;SDS011;16815;51.100;6.516;2022-10-16T09:36:31;1.70;;;0.83;;
29958;SDS011;16815;51.100;6.516;2022-10-16T09:39:05;2.63;;;1.13;;
29958;SDS011;16815;51.100;6.516;2022-10-16T09:41:33;6.27;;;1.07;;
29958;SDS011;16815;51.100;6.516;2022-10-16T09:44:00;1.83;;;0.90;;
29958;SDS011;16815;51.100;6.516;2022-10-16T09:46:30;2.03;;;1.03;;
29958;SDS011;16815;51.100;6.516;2022-10-16T09:48:58;3.37;;;1.00;;
29958;SDS011;16815;51.100;6.516;2022-10-16T09:53:54;2.63;;;0.80;;
29958;SDS011;16815;51.100;6.516;2022-10-16T09:56:22;2.37;;;1.20;;
29958;SDS011;16815;51.100;6.516;2022-10-16T09:58:52;3.87;;;1.10;;
29958;SDS011;16815;51.100;6.516;2022-10-16T10:01:18;1.83;;;0.90;;
29958;SDS011;16815;51.100;6.516;2022-10-16T10:03:44;1.20;;;0.80;;
29958;SDS011;16815;51.100;6.516;2022-10-16T10:06:21;2.10;;;1.27;;
29958;SDS011;16815;51.100;6.516;2022-10-16T10:08:59;2.90;;;1.10;;
29958;SDS011;16815;51.100;6.516;2022-10-16T10:14:04;2.60;;;1.30;;
29958;SDS011;16815;51.100;6.516;2022-10-16T10:16:30;2.40;;;1.13;;
29958;SDS011;16815;51.100;6.516;2022-10-16T10:18:59;2.97;;;1.10;;
29958;SDS011;16815;51.100;6.516;2022-10-16T10:21:25;1.93;;;1.03;;
29958;SDS011;16815;51.100;6.516;2022-10-16T10:23:59;2.40;;;1.20;;
29958;SDS011;16815;51.100;6.516;2022-10-16T10:26:26;3.00;;;1.17;;
29958;SDS011;16815;51.100;6.516;2022-10-16T10:34:00;3.20;;;0.90;;
29958;SDS011;16815;51.100;6.516;2022-10-16T10:36:32;1.40;;;1.03;;
29958;SDS011;16815;51.100;6.516;2022-10-16T10:41:35;3.23;;;1.20;;
29958;SDS011;16815;51.100;6.516;2022-10-16T10:44:11;3.90;;;1.03;;
29958;SDS011;16815;51.100;6.516;2022-10-16T10:46:48;2.20;;;0.83;;
29958;SDS011;16815;51.100;6.516;2022-10-16T10:54:28;1.73;;;0.80;;
29958;SDS011;16815;51.100;6.516;2022-10-16T11:01:55;1.20;;;0.70;;
29958;SDS011;16815;51.100;6.516;2022-10-16T11:09:28;0.80;;;0.70;;
29958;SDS011;16815;51.100;6.516;2022-10-16T11:11:58;1.13;;;0.80;;
29958;SDS011;16815;51.100;6.516;2022-10-16T11:14:29;3.90;;;1.27;;
29958;SDS011;16815;51.100;6.516;2022-10-16T11:17:19;3.07;;;0.90;;
29958;SDS011;16815;51.100;6.516;2022-10-16T11:19:48;1.70;;;0.90;;
29958;SDS011;16815;51.100;6.516;2022-10-16T11:22:27;2.03;;;1.20;;
29958;SDS011;16815;51.100;6.516;2022-10-16T11:24:59;5.70;;;1.03;;
29958;SDS011;16815;51.100;6.516;2022-10-16T11:27:43;0.97;;;0.87;;
29958;SDS011;16815;51.100;6.516;2022-10-16T11:30:20;1.27;;;0.70;;
29958;SDS011;16815;51.100;6.516;2022-10-16T11:32:54;1.60;;;0.93;;
29958;SDS011;16815;51.100;6.516;2022-10-16T11:40:53;2.37;;;1.37;;
29958;SDS011;16815;51.100;6.516;2022-10-16T11:43:26;2.50;;;0.90;;
29958;SDS011;16815;51.100;6.516;2022-10-16T11:45:55;3.83;;;1.10;;
29958;SDS011;16815;51.100;6.516;2022-10-16T11:51:14;4.13;;;1.00;;
29958;SDS011;16815;51.100;6.516;2022-10-16T11:53:53;3.80;;;0.93;;
29958;SDS011;16815;51.100;6.516;2022-10-16T11:56:19;0.70;;;0.70;;
29958;SDS011;16815;51.100;6.516;2022-10-16T11:58:51;2.17;;;1.23;;
29958;SDS011;16815;51.100;6.516;2022-10-16T12:01:28;1.70;;;0.90;;
29958;SDS011;16815;51.100;6.516;2022-10-16T12:06:40;2.47;;;1.20;;
29958;SDS011;16815;51.100;6.516;2022-10-16T12:09:13;1.23;;;0.80;;
29958;SDS011;16815;51.100;6.516;2022-10-16T12:11:40;2.27;;;0.90;;
29958;SDS011;16815;51.100;6.516;2022-10-16T12:16:39;2.50;;;0.90;;
29958;SDS011;16815;51.100;6.516;2022-10-16T12:19:16;2.10;;;0.97;;
29958;SDS011;16815;51.100;6.516;2022-10-16T12:21:43;2.67;;;1.13;;
29958;SDS011;16815;51.100;6.516;2022-10-16T12:26:54;1.10;;;0.70;;
29958;SDS011;16815;51.100;6.516;2022-10-16T12:31:58;2.33;;;0.90;;
29958;SDS011;16815;51.100;6.516;2022-10-16T12:39:35;3.27;;;0.70;;
29958;SDS011;16815;51.100;6.516;2022-10-16T12:42:17;0.93;;;0.60;;
29958;SDS011;16815;51.100;6.516;2022-10-16T12:44:45;0.77;;;0.60;;
29958;SDS011;16815;51.100;6.516;2022-10-16T12:47:21;0.87;;;0.70;;
29958;SDS011;16815;51.100;6.516;2022-10-16T12:49:53;4.73;;;0.70;;
29958;SDS011;16815;51.100;6.516;2022-10-16T12:52:24;1.73;;;1.07;;
29958;SDS011;16815;51.100;6.516;2022-10-16T12:54:51;2.53;;;0.73;;
29958;SDS011;16815;51.100;6.516;2022-10-16T12:57:36;1.93;;;0.90;;
29958;SDS011;16815;51.100;6.516;2022-10-16T13:00:18;1.53;;;0.60;;
29958;SDS011;16815;51.100;6.516;2022-10-16T13:08:06;0.50;;;0.50;;
29958;SDS011;16815;51.100;6.516;2022-10-16T13:13:56;1.83;;;0.77;;
29958;SDS011;16815;51.100;6.516;2022-10-16T13:16:33;0.73;;;0.40;;
29958;SDS011;16815;51.100;6.516;2022-10-16T13:26:50;0.83;;;0.70;;
29958;SDS011;16815;51.100;6.516;2022-10-16T13:29:19;1.73;;;0.60;;
29958;SDS011;16815;51.100;6.516;2022-10-16T13:31:45;5.37;;;0.60;;
29958;SDS011;16815;51.100;6.516;2022-10-16T13:34:12;1.47;;;0.60;;
29958;SDS011;16815;51.100;6.516;2022-10-16T13:36:47;2.63;;;0.67;;
29958;SDS011;16815;51.100;6.516;2022-10-16T13:39:19;1.20;;;0.50;;
29958;SDS011;16815;51.100;6.516;2022-10-16T13:41:46;1.50;;;0.53;;
29958;SDS011;16815;51.100;6.516;2022-10-16T13:44:23;1.33;;;0.60;;
29958;SDS011;16815;51.100;6.516;2022-10-16T13:46:57;1.20;;;0.47;;
29958;SDS011;16815;51.100;6.516;2022-10-16T13:49:24;1.67;;;0.90;;
29958;SDS011;16815;51.100;6.516;2022-10-16T13:51:54;1.97;;;0.87;;
29958;SDS011;16815;51.100;6.516;2022-10-16T13:54:20;1.20;;;0.70;;
29958;SDS011;16815;51.100;6.516;2022-10-16T13:56:46;1.53;;;0.70;;
29958;SDS011;16815;51.100;6.516;2022-10-16T13:59:25;2.83;;;0.70;;
29958;SDS011;16815;51.100;6.516;2022-10-16T14:01:52;2.80;;;0.77;;
29958;SDS011;16815;51.100;6.516;2022-10-16T14:04:19;2.10;;;0.70;;
29958;SDS011;16815;51.100;6.516;2022-10-16T14:06:46;1.37;;;0.60;;
29958;SDS011;16815;51.100;6.516;2022-10-16T14:11:45;0.97;;;0.63;;
29958;SDS011;16815;51.100;6.516;2022-10-16T14:14:12;1.07;;;0.70;;
29958;SDS011;16815;51.100;6.516;2022-10-16T14:16:38;1.23;;;0.70;;
29958;SDS011;16815;51.100;6.516;2022-10-16T14:19:06;0.47;;;0.40;;
29958;SDS011;16815;51.100;6.516;2022-10-16T14:21:34;2.10;;;0.50;;
29958;SDS011;16815;51.100;6.516;2022-10-16T14:24:10;1.73;;;0.80;;
29958;SDS011;16815;51.100;6.516;2022-10-16T14:26:41;3.47;;;0.70;;
29958;SDS011;16815;51.100;6.516;2022-10-16T14:29:11;1.30;;;0.60;;
29958;SDS011;16815;51.100;6.516;2022-10-16T14:31:37;1.70;;;0.70;;
29958;SDS011;16815;51.100;6.516;2022-10-16T14:34:05;0.60;;;0.43;;
29958;SDS011;16815;51.100;6.516;2022-10-16T14:36:49;1.57;;;0.77;;
29958;SDS011;16815;51.100;6.516;2022-10-16T14:39:19;2.87;;;0.57;;
29958;SDS011;16815;51.100;6.516;2022-10-16T14:41:46;0.90;;;0.67;;
29958;SDS011;16815;51.100;6.516;2022-10-16T14:44:13;1.50;;;0.90;;
29958;SDS011;16815;51.100;6.516;2022-10-16T14:46:39;1.70;;;0.70;;
29958;SDS011;16815;51.100;6.516;2022-10-16T14:51:36;1.10;;;0.80;;
29958;SDS011;16815;51.100;6.516;2022-10-16T14:54:02;1.13;;;0.80;;
29958;SDS011;16815;51.100;6.516;2022-10-16T14:57:01;1.47;;;1.10;;
29958;SDS011;16815;51.100;6.516;2022-10-16T15:01:52;1.03;;;0.80;;
29958;SDS011;16815;51.100;6.516;2022-10-16T15:04:18;2.30;;;1.00;;
29958;SDS011;16815;51.100;6.516;2022-10-16T15:06:44;5.93;;;1.00;;
29958;SDS011;16815;51.100;6.516;2022-10-16T15:09:10;1.63;;;0.80;;
29958;SDS011;16815;51.100;6.516;2022-10-16T15:11:36;1.90;;;1.50;;
29958;SDS011;16815;51.100;6.516;2022-10-16T15:14:02;0.77;;;0.70;;
29958;SDS011;16815;51.100;6.516;2022-10-16T15:16:28;2.43;;;0.80;;
29958;SDS011;16815;51.100;6.516;2022-10-16T15:18:54;2.00;;;0.70;;
29958;SDS011;16815;51.100;6.516;2022-10-16T15:21:25;2.57;;;2.37;;
29958;SDS011;16815;51.100;6.516;2022-10-16T15:23:51;2.67;;;1.70;;
29958;SDS011;16815;51.100;6.516;2022-10-16T15:26:17;1.03;;;0.90;;
29958;SDS011;16815;51.100;6.516;2022-10-16T15:28:43;2.67;;;0.83;;
29958;SDS011;16815;51.100;6.516;2022-10-16T15:31:09;1.37;;;0.73;;
29958;SDS011;16815;51.100;6.516;2022-10-16T15:33:35;0.70;;;0.60;;
29958;SDS011;16815;51.100;6.516;2022-10-16T15:36:02;1.37;;;0.70;;
29958;SDS011;16815;51.100;6.516;2022-10-16T15:38:28;4.00;;;1.03;;
29958;SDS011;16815;51.100;6.516;2022-10-16T15:40:54;1.03;;;0.63;;
29958;SDS011;16815;51.100;6.516;2022-10-16T15:43:20;1.93;;;0.70;;
29958;SDS011;16815;51.100;6.516;2022-10-16T15:45:52;1.80;;;0.70;;
29958;SDS011;16815;51.100;6.516;2022-10-16T15:48:22;2.97;;;1.43;;
29958;SDS011;16815;51.100;6.516;2022-10-16T15:50:48;1.43;;;1.00;;
29958;SDS011;16815;51.100;6.516;2022-10-16T15:53:14;0.77;;;0.77;;
29958;SDS011;16815;51.100;6.516;2022-10-16T15:55:40;2.10;;;0.90;;
29958;SDS011;16815;51.100;6.516;2022-10-16T15:58:06;2.57;;;0.90;;
29958;SDS011;16815;51.100;6.516;2022-10-16T16:00:32;1.97;;;0.93;;
29958;SDS011;16815;51.100;6.516;2022-10-16T16:02:58;2.10;;;1.40;;
29958;SDS011;16815;51.100;6.516;2022-10-16T16:05:24;2.57;;;0.90;;
29958;SDS011;16815;51.100;6.516;2022-10-16T16:07:50;1.27;;;1.10;;
29958;SDS011;16815;51.100;6.516;2022-10-16T16:10:16;1.97;;;0.90;;
29958;SDS011;16815;51.100;6.516;2022-10-16T16:12:42;1.83;;;1.20;;
29958;SDS011;16815;51.100;6.516;2022-10-16T16:15:08;2.00;;;1.30;;
29958;SDS011;16815;51.100;6.516;2022-10-16T16:17:35;3.03;;;1.40;;
29958;SDS011;16815;51.100;6.516;2022-10-16T16:20:01;1.63;;;1.03;;
29958;SDS011;16815;51.100;6.516;2022-10-16T16:22:27;3.43;;;1.27;;
29958;SDS011;16815;51.100;6.516;2022-10-16T16:24:53;1.80;;;1.10;;
29958;SDS011;16815;51.100;6.516;2022-10-16T16:27:19;1.53;;;0.93;;
29958;SDS011;16815;51.100;6.516;2022-10-16T16:29:46;2.30;;;1.40;;
29958;SDS011;16815;51.100;6.516;2022-10-16T16:32:12;2.17;;;1.50;;
29958;SDS011;16815;51.100;6.516;2022-10-16T16:34:38;3.83;;;1.57;;
29958;SDS011;16815;51.100;6.516;2022-10-16T16:37:04;4.97;;;1.93;;
29958;SDS011;16815;51.100;6.516;2022-10-16T16:39:30;3.37;;;1.90;;
29958;SDS011;16815;51.100;6.516;2022-10-16T16:41:57;2.63;;;1.47;;
29958;SDS011;16815;51.100;6.516;2022-10-16T16:44:27;2.93;;;1.70;;